sensor_id;sensor_type;location;lat;lon;timestamp;temperature;humidity
6252;DHT22;3159;52.414;9.784;2023-03-20T00:00:58;13.00;99.90
6252;DHT22;3159;52.414;9.784;2023-03-20T00:03:25;13.00;99.90
6252;DHT22;3159;52.414;9.784;2023-03-20T00:05:51;12.90;99.90
6252;DHT22;3159;52.414;9.784;2023-03-20T00:08:18;12.80;99.90
6252;DHT22;3159;52.414;9.784;2023-03-20T00:10:46;12.80;99.90
6252;DHT22;3159;52.414;9.784;2023-03-20T00:13:17;12.80;99.90
6252;DHT22;3159;52.414;9.784;2023-03-20T00:15:47;12.80;99.90
6252;DHT22;3159;52.414;9.784;2023-03-20T00:18:17;12.60;99.90
6252;DHT22;3159;52.414;9.784;2023-03-20T00:20:45;12.40;99.90
6252;DHT22;3159;52.414;9.784;2023-03-20T00:23:12;12.50;99.90
6252;DHT22;3159;52.414;9.784;2023-03-20T00:25:40;12.40;99.90
6252;DHT22;3159;52.414;9.784;2023-03-20T00:28:28;12.40;99.90
6252;DHT22;3159;52.414;9.784;2023-03-20T00:30:57;12.40;99.90
6252;DHT22;3159;52.414;9.784;2023-03-20T00:33:25;12.40;99.90
6252;DHT22;3159;52.414;9.784;2023-03-20T00:35:52;12.40;99.90
6252;DHT22;3159;52.414;9.784;2023-03-20T00:38:19;12.30;99.90
6252;DHT22;3159;52.414;9.784;2023-03-20T00:40:46;12.30;99.90
6252;DHT22;3159;52.414;9.784;2023-03-20T00:43:13;12.40;99.90
6252;DHT22;3159;52.414;9.784;2023-03-20T00:45:40;12.30;99.90
6252;DHT22;3159;52.414;9.784;2023-03-20T00:48:12;12.30;99.90
6252;DHT22;3159;52.414;9.784;2023-03-20T00:50:41;12.20;99.90
6252;DHT22;3159;52.414;9.784;2023-03-20T00:53:09;12.20;99.90
6252;DHT22;3159;52.414;9.784;2023-03-20T00:55:38;12.30;99.90
6252;DHT22;3159;52.414;9.784;2023-03-20T00:58:05;12.10;99.90
6252;DHT22;3159;52.414;9.784;2023-03-20T01:00:35;12.10;99.90
6252;DHT22;3159;52.414;9.784;2023-03-20T01:03:10;12.00;99.90
6252;DHT22;3159;52.414;9.784;2023-03-20T01:05:38;11.90;99.90
6252;DHT22;3159;52.414;9.784;2023-03-20T01:08:11;12.10;99.90
6252;DHT22;3159;52.414;9.784;2023-03-20T01:10:38;11.90;99.90
6252;DHT22;3159;52.414;9.784;2023-03-20T01:13:05;11.90;99.90
6252;DHT22;3159;52.414;9.784;2023-03-20T01:15:39;11.80;99.90
6252;DHT22;3159;52.414;9.784;2023-03-20T01:18:07;12.00;99.90
6252;DHT22;3159;52.414;9.784;2023-03-20T01:20:35;12.10;99.90
6252;DHT22;3159;52.414;9.784;2023-03-20T01:23:03;12.10;99.90
6252;DHT22;3159;52.414;9.784;2023-03-20T01:25:32;12.00;99.90
6252;DHT22;3159;52.414;9.784;2023-03-20T01:27:58;12.10;99.90
6252;DHT22;3159;52.414;9.784;2023-03-20T01:30:27;12.10;99.90
6252;DHT22;3159;52.414;9.784;2023-03-20T01:32:57;12.10;99.90
6252;DHT22;3159;52.414;9.784;2023-03-20T01:35:26;12.10;99.90
6252;DHT22;3159;52.414;9.784;2023-03-20T01:37:53;12.00;99.90
6252;DHT22;3159;52.414;9.784;2023-03-20T01:40:31;12.10;99.90
6252;DHT22;3159;52.414;9.784;2023-03-20T01:43:00;12.00;99.90
6252;DHT22;3159;52.414;9.784;2023-03-20T01:45:30;11.90;99.90
6252;DHT22;3159;52.414;9.784;2023-03-20T01:47:58;11.80;99.90
6252;DHT22;3159;52.414;9.784;2023-03-20T01:50:30;11.80;99.90
6252;DHT22;3159;52.414;9.784;2023-03-20T01:53:03;11.70;99.90
6252;DHT22;3159;52.414;9.784;2023-03-20T01:55:31;11.90;99.90
6252;DHT22;3159;52.414;9.784;2023-03-20T01:58:03;11.70;99.90
6252;DHT22;3159;52.414;9.784;2023-03-20T02:00:33;11.60;99.90
6252;DHT22;3159;52.414;9.784;2023-03-20T02:03:01;11.30;99.90
6252;DHT22;3159;52.414;9.784;2023-03-20T02:05:28;11.20;99.90
6252;DHT22;3159;52.414;9.784;2023-03-20T02:08:04;11.30;99.90
6252;DHT22;3159;52.414;9.784;2023-03-20T02:10:36;11.30;99.90
6252;DHT22;3159;52.414;9.784;2023-03-20T02:13:04;11.40;99.90
6252;DHT22;3159;52.414;9.784;2023-03-20T02:15:31;11.50;99.90
6252;DHT22;3159;52.414;9.784;2023-03-20T02:17:58;11.40;99.90
6252;DHT22;3159;52.414;9.784;2023-03-20T02:20:36;11.40;99.90
6252;DHT22;3159;52.414;9.784;2023-03-20T02:23:33;11.40;99.90
6252;DHT22;3159;52.414;9.784;2023-03-20T02:26:30;11.10;99.90
6252;DHT22;3159;52.414;9.784;2023-03-20T02:32:40;11.20;99.90
6252;DHT22;3159;52.414;9.784;2023-03-20T02:38:46;11.20;99.90
6252;DHT22;3159;52.414;9.784;2023-03-20T02:41:21;11.20;99.90
6252;DHT22;3159;52.414;9.784;2023-03-20T02:43:59;11.20;99.90
6252;DHT22;3159;52.414;9.784;2023-03-20T02:46:33;11.20;99.90
6252;DHT22;3159;52.414;9.784;2023-03-20T02:49:07;11.30;99.90
6252;DHT22;3159;52.414;9.784;2023-03-20T02:51:38;11.30;99.90
6252;DHT22;3159;52.414;9.784;2023-03-20T02:54:12;11.30;99.90
6252;DHT22;3159;52.414;9.784;2023-03-20T02:56:45;11.20;99.90
6252;DHT22;3159;52.414;9.784;2023-03-20T02:59:21;11.20;99.90
6252;DHT22;3159;52.414;9.784;2023-03-20T03:01:53;11.30;99.90
6252;DHT22;3159;52.414;9.784;2023-03-20T03:04:25;11.30;99.90
6252;DHT22;3159;52.414;9.784;2023-03-20T03:06:53;11.40;99.90
6252;DHT22;3159;52.414;9.784;2023-03-20T03:09:27;11.30;99.90
6252;DHT22;3159;52.414;9.784;2023-03-20T03:11:59;11.40;99.90
6252;DHT22;3159;52.414;9.784;2023-03-20T03:14:31;11.40;99.90
6252;DHT22;3159;52.414;9.784;2023-03-20T03:17:01;11.30;99.90
6252;DHT22;3159;52.414;9.784;2023-03-20T03:19:31;11.40;99.90
6252;DHT22;3159;52.414;9.784;2023-03-20T03:21:59;11.30;99.90
6252;DHT22;3159;52.414;9.784;2023-03-20T03:24:30;11.40;99.90
6252;DHT22;3159;52.414;9.784;2023-03-20T03:26:58;11.40;99.90
6252;DHT22;3159;52.414;9.784;2023-03-20T03:29:29;11.20;99.90
6252;DHT22;3159;52.414;9.784;2023-03-20T03:31:57;11.20;99.90
6252;DHT22;3159;52.414;9.784;2023-03-20T03:34:24;11.20;99.90
6252;DHT22;3159;52.414;9.784;2023-03-20T03:36:59;11.20;99.90
6252;DHT22;3159;52.414;9.784;2023-03-20T03:39:36;11.20;99.90
6252;DHT22;3159;52.414;9.784;2023-03-20T03:42:10;11.20;99.90
6252;DHT22;3159;52.414;9.784;2023-03-20T03:44:44;11.20;99.90
6252;DHT22;3159;52.414;9.784;2023-03-20T03:47:17;11.20;99.90
6252;DHT22;3159;52.414;9.784;2023-03-20T03:49:49;11.30;99.90
6252;DHT22;3159;52.414;9.784;2023-03-20T03:52:20;11.20;99.90
6252;DHT22;3159;52.414;9.784;2023-03-20T03:54:51;11.30;99.90
6252;DHT22;3159;52.414;9.784;2023-03-20T03:57:24;11.20;99.90
6252;DHT22;3159;52.414;9.784;2023-03-20T03:59:53;11.30;99.90
6252;DHT22;3159;52.414;9.784;2023-03-20T04:02:22;11.20;99.90
6252;DHT22;3159;52.414;9.784;2023-03-20T04:04:51;11.10;99.90
6252;DHT22;3159;52.414;9.784;2023-03-20T04:07:19;11.20;99.90
6252;DHT22;3159;52.414;9.784;2023-03-20T04:09:46;11.20;99.90
6252;DHT22;3159;52.414;9.784;2023-03-20T04:12:32;11.10;99.90
6252;DHT22;3159;52.414;9.784;2023-03-20T04:14:59;11.00;99.90
6252;DHT22;3159;52.414;9.784;2023-03-20T04:17:26;10.90;99.90
6252;DHT22;3159;52.414;9.784;2023-03-20T04:19:53;10.90;99.90
6252;DHT22;3159;52.414;9.784;2023-03-20T04:22:20;10.90;99.90
6252;DHT22;3159;52.414;9.784;2023-03-20T04:24:46;10.90;99.90
6252;DHT22;3159;52.414;9.784;2023-03-20T04:27:13;10.90;99.90
6252;DHT22;3159;52.414;9.784;2023-03-20T04:29:42;10.80;99.90
6252;DHT22;3159;52.414;9.784;2023-03-20T04:32:10;10.90;99.90
6252;DHT22;3159;52.414;9.784;2023-03-20T04:34:37;10.70;99.90
6252;DHT22;3159;52.414;9.784;2023-03-20T04:37:03;10.70;99.90
6252;DHT22;3159;52.414;9.784;2023-03-20T04:39:33;10.70;99.90
6252;DHT22;3159;52.414;9.784;2023-03-20T04:41:59;10.50;99.90
6252;DHT22;3159;52.414;9.784;2023-03-20T04:44:26;10.40;99.90
6252;DHT22;3159;52.414;9.784;2023-03-20T04:46:54;10.50;99.90
6252;DHT22;3159;52.414;9.784;2023-03-20T04:49:21;10.60;99.90
6252;DHT22;3159;52.414;9.784;2023-03-20T04:51:48;10.50;99.90
6252;DHT22;3159;52.414;9.784;2023-03-20T04:54:15;10.50;99.90
6252;DHT22;3159;52.414;9.784;2023-03-20T04:56:42;10.30;99.90
6252;DHT22;3159;52.414;9.784;2023-03-20T04:59:09;10.30;99.90
6252;DHT22;3159;52.414;9.784;2023-03-20T05:01:35;10.30;99.90
6252;DHT22;3159;52.414;9.784;2023-03-20T05:04:04;10.30;99.90
6252;DHT22;3159;52.414;9.784;2023-03-20T05:06:31;10.20;99.90
6252;DHT22;3159;52.414;9.784;2023-03-20T05:08:58;10.50;99.90
6252;DHT22;3159;52.414;9.784;2023-03-20T05:11:25;10.50;99.90
6252;DHT22;3159;52.414;9.784;2023-03-20T05:13:52;10.60;99.90
6252;DHT22;3159;52.414;9.784;2023-03-20T05:16:19;10.60;99.90
6252;DHT22;3159;52.414;9.784;2023-03-20T05:18:46;10.70;99.90
6252;DHT22;3159;52.414;9.784;2023-03-20T05:21:16;10.70;99.90
6252;DHT22;3159;52.414;9.784;2023-03-20T05:23:42;10.60;99.90
6252;DHT22;3159;52.414;9.784;2023-03-20T05:26:09;10.70;99.90
6252;DHT22;3159;52.414;9.784;2023-03-20T05:28:37;10.60;99.90
6252;DHT22;3159;52.414;9.784;2023-03-20T05:31:04;10.50;99.90
6252;DHT22;3159;52.414;9.784;2023-03-20T05:33:31;10.40;99.90
6252;DHT22;3159;52.414;9.784;2023-03-20T05:35:58;10.50;99.90
6252;DHT22;3159;52.414;9.784;2023-03-20T05:38:26;10.50;99.90
6252;DHT22;3159;52.414;9.784;2023-03-20T05:40:55;10.50;99.90
6252;DHT22;3159;52.414;9.784;2023-03-20T05:43:23;10.40;99.90
6252;DHT22;3159;52.414;9.784;2023-03-20T05:45:49;10.50;99.90
6252;DHT22;3159;52.414;9.784;2023-03-20T05:48:16;10.60;99.90
6252;DHT22;3159;52.414;9.784;2023-03-20T05:50:43;10.50;99.90
6252;DHT22;3159;52.414;9.784;2023-03-20T05:53:10;10.50;99.90
6252;DHT22;3159;52.414;9.784;2023-03-20T05:55:38;10.50;99.90
6252;DHT22;3159;52.414;9.784;2023-03-20T05:58:06;10.40;99.90
6252;DHT22;3159;52.414;9.784;2023-03-20T06:00:32;10.50;99.90
6252;DHT22;3159;52.414;9.784;2023-03-20T06:02:59;10.40;99.90
6252;DHT22;3159;52.414;9.784;2023-03-20T06:05:26;10.50;99.90
6252;DHT22;3159;52.414;9.784;2023-03-20T06:07:53;10.40;99.90
6252;DHT22;3159;52.414;9.784;2023-03-20T06:10:20;10.50;99.90
6252;DHT22;3159;52.414;9.784;2023-03-20T06:12:48;10.50;99.90
6252;DHT22;3159;52.414;9.784;2023-03-20T06:15:15;10.40;99.90
6252;DHT22;3159;52.414;9.784;2023-03-20T06:17:42;10.30;99.90
6252;DHT22;3159;52.414;9.784;2023-03-20T06:20:09;10.40;99.90
6252;DHT22;3159;52.414;9.784;2023-03-20T06:22:36;10.40;99.90
6252;DHT22;3159;52.414;9.784;2023-03-20T06:25:04;10.30;99.90
6252;DHT22;3159;52.414;9.784;2023-03-20T06:27:31;10.40;99.90
6252;DHT22;3159;52.414;9.784;2023-03-20T06:29:59;10.30;99.90
6252;DHT22;3159;52.414;9.784;2023-03-20T06:32:25;10.30;99.90
6252;DHT22;3159;52.414;9.784;2023-03-20T06:34:52;10.30;99.90
6252;DHT22;3159;52.414;9.784;2023-03-20T06:37:19;10.20;99.90
6252;DHT22;3159;52.414;9.784;2023-03-20T06:39:46;10.40;99.90
6252;DHT22;3159;52.414;9.784;2023-03-20T06:42:13;10.40;99.90
6252;DHT22;3159;52.414;9.784;2023-03-20T06:44:40;10.40;99.90
6252;DHT22;3159;52.414;9.784;2023-03-20T06:47:08;10.40;99.90
6252;DHT22;3159;52.414;9.784;2023-03-20T06:49:35;10.40;99.90
6252;DHT22;3159;52.414;9.784;2023-03-20T06:52:02;10.50;99.90
6252;DHT22;3159;52.414;9.784;2023-03-20T06:54:29;10.40;99.90
6252;DHT22;3159;52.414;9.784;2023-03-20T06:56:56;10.40;99.90
6252;DHT22;3159;52.414;9.784;2023-03-20T06:59:23;10.30;99.90
6252;DHT22;3159;52.414;9.784;2023-03-20T07:01:49;10.40;99.90
6252;DHT22;3159;52.414;9.784;2023-03-20T07:04:18;10.40;99.90
6252;DHT22;3159;52.414;9.784;2023-03-20T07:06:45;10.40;99.90
6252;DHT22;3159;52.414;9.784;2023-03-20T07:09:12;10.40;99.90
6252;DHT22;3159;52.414;9.784;2023-03-20T07:11:39;10.30;99.90
6252;DHT22;3159;52.414;9.784;2023-03-20T07:14:06;10.30;99.90
6252;DHT22;3159;52.414;9.784;2023-03-20T07:16:32;10.20;99.90
6252;DHT22;3159;52.414;9.784;2023-03-20T07:19:00;10.40;99.90
6252;DHT22;3159;52.414;9.784;2023-03-20T07:21:28;10.40;99.90
6252;DHT22;3159;52.414;9.784;2023-03-20T07:23:56;10.50;99.90
6252;DHT22;3159;52.414;9.784;2023-03-20T07:26:23;10.50;99.90
6252;DHT22;3159;52.414;9.784;2023-03-20T07:28:50;10.60;99.90
6252;DHT22;3159;52.414;9.784;2023-03-20T07:31:21;10.50;99.90
6252;DHT22;3159;52.414;9.784;2023-03-20T07:33:48;10.50;99.90
6252;DHT22;3159;52.414;9.784;2023-03-20T07:36:15;10.60;99.90
6252;DHT22;3159;52.414;9.784;2023-03-20T07:38:43;10.70;99.90
6252;DHT22;3159;52.414;9.784;2023-03-20T07:41:10;10.80;99.90
6252;DHT22;3159;52.414;9.784;2023-03-20T07:43:37;10.70;99.90
6252;DHT22;3159;52.414;9.784;2023-03-20T07:46:05;10.80;99.90
6252;DHT22;3159;52.414;9.784;2023-03-20T07:48:32;10.70;99.90
6252;DHT22;3159;52.414;9.784;2023-03-20T07:50:59;10.50;99.90
6252;DHT22;3159;52.414;9.784;2023-03-20T07:53:26;10.50;99.90
6252;DHT22;3159;52.414;9.784;2023-03-20T07:55:54;10.50;99.90
6252;DHT22;3159;52.414;9.784;2023-03-20T07:58:21;10.60;99.90
6252;DHT22;3159;52.414;9.784;2023-03-20T08:00:48;10.70;99.90
6252;DHT22;3159;52.414;9.784;2023-03-20T08:03:14;10.70;99.90
6252;DHT22;3159;52.414;9.784;2023-03-20T08:05:42;10.50;99.90
6252;DHT22;3159;52.414;9.784;2023-03-20T08:08:09;10.70;99.90
6252;DHT22;3159;52.414;9.784;2023-03-20T08:10:36;10.70;99.90
6252;DHT22;3159;52.414;9.784;2023-03-20T08:13:04;10.70;99.90
6252;DHT22;3159;52.414;9.784;2023-03-20T08:15:31;10.60;99.90
6252;DHT22;3159;52.414;9.784;2023-03-20T08:17:58;10.60;99.90
6252;DHT22;3159;52.414;9.784;2023-03-20T08:20:24;10.50;99.90
6252;DHT22;3159;52.414;9.784;2023-03-20T08:22:51;10.60;99.90
6252;DHT22;3159;52.414;9.784;2023-03-20T08:25:18;10.50;99.90
6252;DHT22;3159;52.414;9.784;2023-03-20T08:27:45;10.70;99.90
6252;DHT22;3159;52.414;9.784;2023-03-20T08:30:14;10.60;99.90
6252;DHT22;3159;52.414;9.784;2023-03-20T08:32:41;10.60;99.90
6252;DHT22;3159;52.414;9.784;2023-03-20T08:35:08;10.70;99.90
6252;DHT22;3159;52.414;9.784;2023-03-20T08:37:35;10.80;99.90
6252;DHT22;3159;52.414;9.784;2023-03-20T08:40:04;10.60;99.90
6252;DHT22;3159;52.414;9.784;2023-03-20T08:42:31;10.70;99.90
6252;DHT22;3159;52.414;9.784;2023-03-20T08:44:58;10.70;99.90
6252;DHT22;3159;52.414;9.784;2023-03-20T08:47:26;10.70;99.90
6252;DHT22;3159;52.414;9.784;2023-03-20T08:49:53;10.70;99.90
6252;DHT22;3159;52.414;9.784;2023-03-20T08:52:20;10.70;99.90
6252;DHT22;3159;52.414;9.784;2023-03-20T08:54:47;10.70;99.90
6252;DHT22;3159;52.414;9.784;2023-03-20T08:57:14;10.70;99.90
6252;DHT22;3159;52.414;9.784;2023-03-20T08:59:40;10.70;99.90
6252;DHT22;3159;52.414;9.784;2023-03-20T09:02:09;10.70;99.90
6252;DHT22;3159;52.414;9.784;2023-03-20T09:04:37;10.60;99.90
6252;DHT22;3159;52.414;9.784;2023-03-20T09:07:05;10.70;99.90
6252;DHT22;3159;52.414;9.784;2023-03-20T09:09:32;10.60;99.90
6252;DHT22;3159;52.414;9.784;2023-03-20T09:11:59;10.60;99.90
6252;DHT22;3159;52.414;9.784;2023-03-20T09:14:27;10.70;99.90
6252;DHT22;3159;52.414;9.784;2023-03-20T09:16:54;10.70;99.90
6252;DHT22;3159;52.414;9.784;2023-03-20T09:19:20;10.70;99.90
6252;DHT22;3159;52.414;9.784;2023-03-20T09:21:48;10.70;99.90
6252;DHT22;3159;52.414;9.784;2023-03-20T09:24:15;10.70;99.90
6252;DHT22;3159;52.414;9.784;2023-03-20T09:26:42;10.70;99.90
6252;DHT22;3159;52.414;9.784;2023-03-20T09:29:09;10.60;99.90
6252;DHT22;3159;52.414;9.784;2023-03-20T09:31:36;10.60;99.90
6252;DHT22;3159;52.414;9.784;2023-03-20T09:34:02;10.50;99.90
6252;DHT22;3159;52.414;9.784;2023-03-20T09:36:29;10.60;99.90
6252;DHT22;3159;52.414;9.784;2023-03-20T09:38:57;10.60;99.90
6252;DHT22;3159;52.414;9.784;2023-03-20T09:41:25;10.60;99.90
6252;DHT22;3159;52.414;9.784;2023-03-20T09:44:00;10.60;99.90
6252;DHT22;3159;52.414;9.784;2023-03-20T09:46:50;10.60;99.90
6252;DHT22;3159;52.414;9.784;2023-03-20T09:49:32;10.60;99.90
6252;DHT22;3159;52.414;9.784;2023-03-20T09:52:06;10.70;99.90
6252;DHT22;3159;52.414;9.784;2023-03-20T09:54:41;10.80;99.90
6252;DHT22;3159;52.414;9.784;2023-03-20T09:57:16;10.90;99.90
6252;DHT22;3159;52.414;9.784;2023-03-20T09:59:46;10.90;99.90
6252;DHT22;3159;52.414;9.784;2023-03-20T10:02:17;10.90;99.90
6252;DHT22;3159;52.414;9.784;2023-03-20T10:04:51;11.00;99.90
6252;DHT22;3159;52.414;9.784;2023-03-20T10:07:18;10.90;99.90
6252;DHT22;3159;52.414;9.784;2023-03-20T10:09:47;10.90;99.90
6252;DHT22;3159;52.414;9.784;2023-03-20T10:12:28;11.00;99.90
6252;DHT22;3159;52.414;9.784;2023-03-20T10:15:01;11.00;99.90
6252;DHT22;3159;52.414;9.784;2023-03-20T10:17:43;11.10;99.90
6252;DHT22;3159;52.414;9.784;2023-03-20T10:20:21;11.00;99.90
6252;DHT22;3159;52.414;9.784;2023-03-20T10:22:53;10.90;99.90
6252;DHT22;3159;52.414;9.784;2023-03-20T10:25:30;10.90;99.90
6252;DHT22;3159;52.414;9.784;2023-03-20T10:27:59;10.70;99.90
6252;DHT22;3159;52.414;9.784;2023-03-20T10:30:37;10.80;99.90
6252;DHT22;3159;52.414;9.784;2023-03-20T10:33:17;10.90;99.90
6252;DHT22;3159;52.414;9.784;2023-03-20T10:35:56;11.00;99.90
6252;DHT22;3159;52.414;9.784;2023-03-20T10:38:32;11.30;99.90
6252;DHT22;3159;52.414;9.784;2023-03-20T10:41:03;11.50;99.90
6252;DHT22;3159;52.414;9.784;2023-03-20T10:43:35;11.80;99.90
6252;DHT22;3159;52.414;9.784;2023-03-20T10:46:05;12.00;99.90
6252;DHT22;3159;52.414;9.784;2023-03-20T10:48:37;11.70;99.90
6252;DHT22;3159;52.414;9.784;2023-03-20T10:51:05;11.50;99.90
6252;DHT22;3159;52.414;9.784;2023-03-20T10:53:42;11.70;99.90
6252;DHT22;3159;52.414;9.784;2023-03-20T10:56:15;11.80;99.90
6252;DHT22;3159;52.414;9.784;2023-03-20T10:58:48;11.90;99.90
6252;DHT22;3159;52.414;9.784;2023-03-20T11:01:17;12.00;99.90
6252;DHT22;3159;52.414;9.784;2023-03-20T11:03:45;12.00;99.90
6252;DHT22;3159;52.414;9.784;2023-03-20T11:06:17;11.90;99.90
6252;DHT22;3159;52.414;9.784;2023-03-20T11:08:48;12.00;99.90
6252;DHT22;3159;52.414;9.784;2023-03-20T11:11:22;12.20;99.90
6252;DHT22;3159;52.414;9.784;2023-03-20T11:13:49;12.20;99.90
6252;DHT22;3159;52.414;9.784;2023-03-20T11:16:19;11.90;99.90
6252;DHT22;3159;52.414;9.784;2023-03-20T11:18:47;12.00;99.90
6252;DHT22;3159;52.414;9.784;2023-03-20T11:21:18;11.70;99.90
6252;DHT22;3159;52.414;9.784;2023-03-20T11:23:45;11.60;99.90
6252;DHT22;3159;52.414;9.784;2023-03-20T11:26:14;11.80;99.90
6252;DHT22;3159;52.414;9.784;2023-03-20T11:28:49;12.30;99.90
6252;DHT22;3159;52.414;9.784;2023-03-20T11:31:20;12.40;99.90
6252;DHT22;3159;52.414;9.784;2023-03-20T11:33:52;12.40;99.90
6252;DHT22;3159;52.414;9.784;2023-03-20T11:36:28;12.50;99.90
6252;DHT22;3159;52.414;9.784;2023-03-20T11:39:00;12.30;99.90
6252;DHT22;3159;52.414;9.784;2023-03-20T11:41:28;12.60;99.90
6252;DHT22;3159;52.414;9.784;2023-03-20T11:43:56;12.50;99.90
6252;DHT22;3159;52.414;9.784;2023-03-20T11:46:23;13.10;99.90
6252;DHT22;3159;52.414;9.784;2023-03-20T11:49:06;13.50;99.90
6252;DHT22;3159;52.414;9.784;2023-03-20T11:51:34;13.20;99.90
6252;DHT22;3159;52.414;9.784;2023-03-20T11:54:04;12.80;99.90
6252;DHT22;3159;52.414;9.784;2023-03-20T11:56:33;12.40;99.90
6252;DHT22;3159;52.414;9.784;2023-03-20T11:59:09;12.80;99.90
6252;DHT22;3159;52.414;9.784;2023-03-20T12:01:39;12.60;99.90
6252;DHT22;3159;52.414;9.784;2023-03-20T12:04:12;12.80;99.90
6252;DHT22;3159;52.414;9.784;2023-03-20T12:06:46;13.40;99.90
6252;DHT22;3159;52.414;9.784;2023-03-20T12:09:26;13.00;99.90
6252;DHT22;3159;52.414;9.784;2023-03-20T12:11:58;13.30;99.90
6252;DHT22;3159;52.414;9.784;2023-03-20T12:14:34;13.20;99.90
6252;DHT22;3159;52.414;9.784;2023-03-20T12:20:04;12.90;99.90
6252;DHT22;3159;52.414;9.784;2023-03-20T12:22:35;13.30;99.90
6252;DHT22;3159;52.414;9.784;2023-03-20T12:25:11;13.70;99.90
6252;DHT22;3159;52.414;9.784;2023-03-20T12:27:46;13.50;99.90
6252;DHT22;3159;52.414;9.784;2023-03-20T12:30:20;13.50;99.90
6252;DHT22;3159;52.414;9.784;2023-03-20T12:32:53;13.30;99.90
6252;DHT22;3159;52.414;9.784;2023-03-20T12:35:29;13.10;99.90
6252;DHT22;3159;52.414;9.784;2023-03-20T12:37:56;12.80;99.90
6252;DHT22;3159;52.414;9.784;2023-03-20T12:40:30;12.70;99.90
6252;DHT22;3159;52.414;9.784;2023-03-20T12:43:03;13.00;99.90
6252;DHT22;3159;52.414;9.784;2023-03-20T12:45:37;12.70;99.90
6252;DHT22;3159;52.414;9.784;2023-03-20T12:48:16;12.30;99.90
6252;DHT22;3159;52.414;9.784;2023-03-20T12:50:49;12.00;99.90
6252;DHT22;3159;52.414;9.784;2023-03-20T12:53:29;11.90;99.90
6252;DHT22;3159;52.414;9.784;2023-03-20T12:56:06;11.90;99.90
6252;DHT22;3159;52.414;9.784;2023-03-20T12:58:41;12.10;99.90
6252;DHT22;3159;52.414;9.784;2023-03-20T13:01:16;12.10;99.90
6252;DHT22;3159;52.414;9.784;2023-03-20T13:04:00;11.90;99.90
6252;DHT22;3159;52.414;9.784;2023-03-20T13:06:37;12.10;99.90
6252;DHT22;3159;52.414;9.784;2023-03-20T13:09:29;12.20;99.90
6252;DHT22;3159;52.414;9.784;2023-03-20T13:12:03;12.50;99.90
6252;DHT22;3159;52.414;9.784;2023-03-20T13:14:36;13.00;99.90
6252;DHT22;3159;52.414;9.784;2023-03-20T13:17:13;12.70;99.90
6252;DHT22;3159;52.414;9.784;2023-03-20T13:19:48;12.50;99.90
6252;DHT22;3159;52.414;9.784;2023-03-20T13:22:24;12.70;99.90
6252;DHT22;3159;52.414;9.784;2023-03-20T13:25:01;13.50;99.90
6252;DHT22;3159;52.414;9.784;2023-03-20T13:27:34;13.70;99.90
6252;DHT22;3159;52.414;9.784;2023-03-20T13:30:10;13.40;99.90
6252;DHT22;3159;52.414;9.784;2023-03-20T13:32:48;13.20;99.90
6252;DHT22;3159;52.414;9.784;2023-03-20T13:35:33;13.10;99.90
6252;DHT22;3159;52.414;9.784;2023-03-20T13:38:07;12.90;99.90
6252;DHT22;3159;52.414;9.784;2023-03-20T13:40:39;12.80;99.90
6252;DHT22;3159;52.414;9.784;2023-03-20T13:43:14;12.60;99.90
6252;DHT22;3159;52.414;9.784;2023-03-20T13:45:45;12.70;99.90
6252;DHT22;3159;52.414;9.784;2023-03-20T13:48:23;12.80;99.90
6252;DHT22;3159;52.414;9.784;2023-03-20T13:50:56;12.50;99.90
6252;DHT22;3159;52.414;9.784;2023-03-20T13:53:30;12.70;99.90
6252;DHT22;3159;52.414;9.784;2023-03-20T13:56:04;12.60;99.90
6252;DHT22;3159;52.414;9.784;2023-03-20T14:01:37;12.70;99.90
6252;DHT22;3159;52.414;9.784;2023-03-20T14:04:13;12.40;99.90
6252;DHT22;3159;52.414;9.784;2023-03-20T14:06:51;12.70;99.90
6252;DHT22;3159;52.414;9.784;2023-03-20T14:09:30;12.80;99.90
6252;DHT22;3159;52.414;9.784;2023-03-20T14:12:04;12.70;99.90
6252;DHT22;3159;52.414;9.784;2023-03-20T14:14:35;12.60;99.90
6252;DHT22;3159;52.414;9.784;2023-03-20T14:17:14;12.70;99.90
6252;DHT22;3159;52.414;9.784;2023-03-20T14:19:43;12.40;99.90
6252;DHT22;3159;52.414;9.784;2023-03-20T14:22:15;12.60;99.90
6252;DHT22;3159;52.414;9.784;2023-03-20T14:24:50;12.50;99.90
6252;DHT22;3159;52.414;9.784;2023-03-20T14:27:20;12.30;99.90
6252;DHT22;3159;52.414;9.784;2023-03-20T14:29:47;12.30;99.90
6252;DHT22;3159;52.414;9.784;2023-03-20T14:32:34;12.40;99.90
6252;DHT22;3159;52.414;9.784;2023-03-20T14:35:24;12.40;99.90
6252;DHT22;3159;52.414;9.784;2023-03-20T14:38:14;12.30;99.90
6252;DHT22;3159;52.414;9.784;2023-03-20T14:40:51;12.10;99.90
6252;DHT22;3159;52.414;9.784;2023-03-20T14:43:32;12.10;99.90
6252;DHT22;3159;52.414;9.784;2023-03-20T14:46:06;12.10;99.90
6252;DHT22;3159;52.414;9.784;2023-03-20T14:48:37;12.00;99.90
6252;DHT22;3159;52.414;9.784;2023-03-20T14:51:19;12.10;99.90
6252;DHT22;3159;52.414;9.784;2023-03-20T14:53:52;12.00;99.90
6252;DHT22;3159;52.414;9.784;2023-03-20T14:56:26;11.80;99.90
6252;DHT22;3159;52.414;9.784;2023-03-20T14:59:00;11.90;99.90
6252;DHT22;3159;52.414;9.784;2023-03-20T15:01:58;11.90;99.90
6252;DHT22;3159;52.414;9.784;2023-03-20T15:04:29;11.70;99.90
6252;DHT22;3159;52.414;9.784;2023-03-20T15:07:01;11.70;99.90
6252;DHT22;3159;52.414;9.784;2023-03-20T15:09:31;11.70;99.90
6252;DHT22;3159;52.414;9.784;2023-03-20T15:11:58;11.60;99.90
6252;DHT22;3159;52.414;9.784;2023-03-20T15:14:32;11.60;99.90
6252;DHT22;3159;52.414;9.784;2023-03-20T15:17:01;11.70;99.90
6252;DHT22;3159;52.414;9.784;2023-03-20T15:19:29;11.70;99.90
6252;DHT22;3159;52.414;9.784;2023-03-20T15:21:59;11.60;99.90
6252;DHT22;3159;52.414;9.784;2023-03-20T15:24:28;11.70;99.90
6252;DHT22;3159;52.414;9.784;2023-03-20T15:26:57;11.60;99.90
6252;DHT22;3159;52.414;9.784;2023-03-20T15:29:25;11.60;99.90
6252;DHT22;3159;52.414;9.784;2023-03-20T15:31:54;11.70;99.90
6252;DHT22;3159;52.414;9.784;2023-03-20T15:34:24;11.80;99.90
6252;DHT22;3159;52.414;9.784;2023-03-20T15:36:54;11.70;99.90
6252;DHT22;3159;52.414;9.784;2023-03-20T15:39:24;11.60;99.90
6252;DHT22;3159;52.414;9.784;2023-03-20T15:41:54;11.50;99.90
6252;DHT22;3159;52.414;9.784;2023-03-20T15:44:23;11.60;99.90
6252;DHT22;3159;52.414;9.784;2023-03-20T15:46:52;11.60;99.90
6252;DHT22;3159;52.414;9.784;2023-03-20T15:49:20;11.60;99.90
6252;DHT22;3159;52.414;9.784;2023-03-20T15:51:48;11.70;99.90
6252;DHT22;3159;52.414;9.784;2023-03-20T15:54:16;11.70;99.90
6252;DHT22;3159;52.414;9.784;2023-03-20T15:56:48;11.70;99.90
6252;DHT22;3159;52.414;9.784;2023-03-20T15:59:18;11.60;99.90
6252;DHT22;3159;52.414;9.784;2023-03-20T16:01:48;11.40;99.90
6252;DHT22;3159;52.414;9.784;2023-03-20T16:04:17;11.40;99.90
6252;DHT22;3159;52.414;9.784;2023-03-20T16:06:46;11.40;99.90
6252;DHT22;3159;52.414;9.784;2023-03-20T16:09:14;11.30;99.90
6252;DHT22;3159;52.414;9.784;2023-03-20T16:11:43;11.30;99.90
6252;DHT22;3159;52.414;9.784;2023-03-20T16:14:15;11.20;99.90
6252;DHT22;3159;52.414;9.784;2023-03-20T16:16:47;11.10;99.90
6252;DHT22;3159;52.414;9.784;2023-03-20T16:19:18;11.20;99.90
6252;DHT22;3159;52.414;9.784;2023-03-20T16:21:48;11.10;99.90
6252;DHT22;3159;52.414;9.784;2023-03-20T16:24:19;11.10;99.90
6252;DHT22;3159;52.414;9.784;2023-03-20T16:26:49;11.20;99.90
6252;DHT22;3159;52.414;9.784;2023-03-20T16:29:18;11.20;99.90
6252;DHT22;3159;52.414;9.784;2023-03-20T16:31:51;11.20;99.90
6252;DHT22;3159;52.414;9.784;2023-03-20T16:34:21;11.20;99.90
6252;DHT22;3159;52.414;9.784;2023-03-20T16:36:55;11.10;99.90